createdAt,value
2023-04-09T20:56:36.541Z,10.96
2023-04-09T20:59:04.958Z,11.01
2023-04-09T21:01:33.394Z,10.97
2023-04-09T21:04:03.953Z,10.95
2023-04-09T21:06:40.431Z,10.91
2023-04-09T21:09:08.809Z,10.85
2023-04-09T21:11:37.050Z,10.86
2023-04-09T21:14:07.970Z,10.78
2023-04-09T21:16:36.623Z,10.75
2023-04-09T21:19:06.980Z,10.65
2023-04-09T21:21:36.535Z,10.62
2023-04-09T21:24:05.002Z,10.57
2023-04-09T21:26:49.407Z,10.48
2023-04-09T21:29:21.129Z,10.41
2023-04-09T21:31:50.707Z,10.40
2023-04-09T21:34:19.942Z,10.32
2023-04-09T21:36:48.509Z,10.29
2023-04-09T21:39:17.939Z,10.23
2023-04-09T21:41:46.728Z,10.17
2023-04-09T21:44:15.030Z,10.17
2023-04-09T21:46:43.365Z,10.10
2023-04-09T21:49:11.766Z,10.04
2023-04-09T21:51:40.212Z,9.98
2023-04-09T21:54:11.884Z,9.95
2023-04-09T21:56:40.227Z,9.88
2023-04-09T21:59:08.481Z,9.83
2023-04-09T22:01:36.916Z,9.79
2023-04-09T22:04:05.402Z,9.74
2023-04-09T22:06:33.784Z,9.66
2023-04-09T22:09:02.419Z,9.64
2023-04-09T22:11:31.087Z,9.62
2023-04-09T22:13:59.398Z,9.59
2023-04-09T22:16:27.858Z,9.51
2023-04-09T22:18:56.894Z,9.53
2023-04-09T22:21:26.723Z,9.46
2023-04-09T22:23:55.135Z,9.42
2023-04-09T22:26:23.998Z,9.45
2023-04-09T22:28:52.639Z,9.38
2023-04-09T22:31:27.300Z,9.36
2023-04-09T22:33:56.077Z,9.32
2023-04-09T22:36:24.927Z,9.27
2023-04-09T22:38:53.319Z,9.24
2023-04-09T22:41:22.785Z,9.19
2023-04-09T22:43:52.318Z,9.19
2023-04-09T22:46:21.446Z,9.13
2023-04-09T22:48:50.302Z,9.12
2023-04-09T22:51:18.618Z,9.08
2023-04-09T22:53:47.259Z,9.00
2023-04-09T22:56:15.560Z,9.04
2023-04-09T22:58:43.763Z,9.00
2023-04-09T23:01:12.068Z,8.93
2023-04-09T23:03:40.357Z,8.92
2023-04-09T23:06:08.601Z,8.91
2023-04-09T23:08:38.752Z,8.89
2023-04-09T23:11:08.640Z,8.87
2023-04-09T23:13:37.843Z,8.86
2023-04-09T23:16:08.021Z,8.83
2023-04-09T23:18:36.736Z,8.80
2023-04-09T23:21:07.547Z,8.78
2023-04-09T23:23:37.005Z,8.78
2023-04-09T23:26:06.465Z,8.77
2023-04-09T23:28:34.804Z,8.72
2023-04-09T23:31:03.043Z,8.70
2023-04-09T23:33:32.451Z,8.73
2023-04-09T23:36:00.936Z,8.69
2023-04-09T23:38:29.261Z,8.68
2023-04-09T23:40:57.477Z,8.67
2023-04-09T23:43:25.831Z,8.65
2023-04-09T23:45:54.144Z,8.62
2023-04-09T23:48:22.485Z,8.62
2023-04-09T23:50:50.689Z,8.61
2023-04-09T23:53:18.985Z,8.57
2023-04-09T23:55:47.770Z,8.55
2023-04-09T23:58:16.144Z,8.56
